createdAt,value
2023-07-18T00:01:41.214Z,29.22
2023-07-18T00:04:08.728Z,29.25
2023-07-18T00:06:35.786Z,29.27
2023-07-18T00:09:05.522Z,29.26
2023-07-18T00:11:32.461Z,29.24
2023-07-18T00:13:59.939Z,29.29
2023-07-18T00:16:26.948Z,29.27
2023-07-18T00:18:54.134Z,29.22
2023-07-18T00:21:22.186Z,29.11
2023-07-18T00:23:49.275Z,29.08
2023-07-18T00:26:17.146Z,29.01
2023-07-18T00:28:44.408Z,28.97
2023-07-18T00:31:11.480Z,29.00
2023-07-18T00:33:38.467Z,28.96
2023-07-18T00:36:06.311Z,29.00
2023-07-18T00:38:33.270Z,28.89
2023-07-18T00:41:00.242Z,28.87
2023-07-18T00:43:33.137Z,29.07
2023-07-18T00:46:01.387Z,29.04
2023-07-18T00:48:35.617Z,29.09
2023-07-18T00:51:08.557Z,28.99
2023-07-18T00:53:39.133Z,29.10
2023-07-18T00:56:06.228Z,28.94
2023-07-18T00:58:33.206Z,28.91
2023-07-18T01:01:02.025Z,28.96
2023-07-18T01:03:30.842Z,29.00
2023-07-18T01:05:58.273Z,28.89
2023-07-18T01:08:26.050Z,28.80
2023-07-18T01:10:53.145Z,28.78
2023-07-18T01:13:20.158Z,28.75
2023-07-18T01:15:48.088Z,28.74
2023-07-18T01:18:15.438Z,28.78
2023-07-18T01:20:46.171Z,28.72
2023-07-18T01:23:13.680Z,28.65
2023-07-18T01:25:43.469Z,28.73
2023-07-18T01:28:11.941Z,28.67
2023-07-18T01:30:39.315Z,28.81
2023-07-18T01:33:06.552Z,28.67
2023-07-18T01:35:33.782Z,28.64
2023-07-18T01:38:00.775Z,28.73
2023-07-18T01:40:28.125Z,28.78
2023-07-18T01:42:57.218Z,28.75
2023-07-18T01:45:28.944Z,28.61
2023-07-18T01:47:57.812Z,28.53
2023-07-18T01:50:25.122Z,28.41
2023-07-18T01:52:52.070Z,28.33
2023-07-18T01:55:21.196Z,28.39
2023-07-18T01:57:50.902Z,28.43
2023-07-18T02:00:21.421Z,28.52
2023-07-18T02:02:53.489Z,28.42
2023-07-18T02:05:26.231Z,28.43
2023-07-18T02:07:53.857Z,28.22
2023-07-18T02:10:22.604Z,28.23
2023-07-18T02:12:54.877Z,28.23
2023-07-18T02:15:23.292Z,27.90
2023-07-18T02:17:50.523Z,27.83
2023-07-18T02:20:18.360Z,28.01
2023-07-18T02:22:47.349Z,28.18
2023-07-18T02:25:18.175Z,27.90
2023-07-18T02:27:45.859Z,28.01
2023-07-18T02:30:14.319Z,28.09
2023-07-18T02:32:43.900Z,27.97
2023-07-18T02:35:13.123Z,27.86
2023-07-18T02:37:40.112Z,27.75
2023-07-18T02:40:11.306Z,27.94
2023-07-18T02:42:40.255Z,27.95
2023-07-18T02:45:10.140Z,27.93
2023-07-18T02:47:39.762Z,28.22
2023-07-18T02:50:08.161Z,27.80
2023-07-18T02:52:35.542Z,27.76
2023-07-18T02:55:04.508Z,27.61
2023-07-18T02:57:32.446Z,27.48
2023-07-18T02:59:59.960Z,27.64
2023-07-18T03:02:29.329Z,27.63
2023-07-18T03:04:56.775Z,27.39
2023-07-18T03:07:23.754Z,27.43
2023-07-18T03:09:50.720Z,27.53
2023-07-18T03:12:17.844Z,27.52
2023-07-18T03:14:45.069Z,27.48
2023-07-18T03:17:12.167Z,27.39
2023-07-18T03:19:39.150Z,27.05
2023-07-18T03:22:06.486Z,27.06
2023-07-18T03:24:36.646Z,27.53
2023-07-18T03:27:04.834Z,27.37
2023-07-18T03:29:32.324Z,27.15
2023-07-18T03:32:01.954Z,27.34
2023-07-18T03:34:29.774Z,26.91
2023-07-18T03:36:56.976Z,27.37
2023-07-18T03:39:24.425Z,27.36
2023-07-18T03:41:51.569Z,27.44
2023-07-18T03:44:18.709Z,27.29
2023-07-18T03:46:45.782Z,27.34
2023-07-18T03:49:12.890Z,27.20
2023-07-18T03:51:40.392Z,27.43
2023-07-18T03:54:07.400Z,27.53
2023-07-18T03:56:35.117Z,27.47
2023-07-18T03:59:02.374Z,27.42
2023-07-18T04:01:29.394Z,27.35
2023-07-18T04:03:56.625Z,27.42
2023-07-18T04:06:23.817Z,27.35
2023-07-18T04:08:50.862Z,27.30
2023-07-18T04:11:18.294Z,27.36
2023-07-18T04:13:45.514Z,27.34
2023-07-18T04:16:13.560Z,27.48
2023-07-18T04:18:40.621Z,27.29
2023-07-18T04:21:08.171Z,27.24
2023-07-18T04:23:35.419Z,27.35
2023-07-18T04:26:04.363Z,27.44
2023-07-18T04:28:35.395Z,27.37
2023-07-18T04:31:03.102Z,27.31
2023-07-18T04:33:35.313Z,27.37
2023-07-18T04:36:02.639Z,27.22
2023-07-18T04:38:29.921Z,27.12
2023-07-18T04:40:57.268Z,27.02
2023-07-18T04:43:24.262Z,27.00
2023-07-18T04:45:52.272Z,27.18
2023-07-18T04:48:20.464Z,27.08
2023-07-18T04:50:51.644Z,26.90
2023-07-18T04:53:18.777Z,26.78
2023-07-18T04:55:46.874Z,26.60
2023-07-18T04:58:13.837Z,26.72
2023-07-18T05:00:40.786Z,26.88
2023-07-18T05:03:07.861Z,26.85
2023-07-18T05:05:34.889Z,26.90
2023-07-18T05:08:02.167Z,26.99
2023-07-18T05:10:29.466Z,27.04
2023-07-18T05:12:57.943Z,27.02
2023-07-18T05:15:25.079Z,27.02
2023-07-18T05:17:52.264Z,27.03
2023-07-18T05:20:20.474Z,26.97
2023-07-18T05:22:47.637Z,26.66
2023-07-18T05:25:16.250Z,27.07
2023-07-18T05:27:43.489Z,27.28
2023-07-18T05:30:18.986Z,27.43
2023-07-18T05:32:47.312Z,27.33
2023-07-18T05:35:17.837Z,27.35
2023-07-18T05:37:45.524Z,27.12
2023-07-18T05:40:13.392Z,27.26
2023-07-18T05:42:42.633Z,27.02
2023-07-18T05:45:10.787Z,27.10
2023-07-18T05:47:39.696Z,27.23
2023-07-18T05:50:07.935Z,27.17
2023-07-18T05:52:35.464Z,27.11
2023-07-18T05:55:04.204Z,27.32
2023-07-18T05:57:31.487Z,27.01
2023-07-18T05:59:58.749Z,27.44
2023-07-18T06:02:25.917Z,27.20
2023-07-18T06:04:52.945Z,27.32
2023-07-18T06:07:20.049Z,27.30
2023-07-18T06:09:53.676Z,27.12
2023-07-18T06:12:20.703Z,27.27
2023-07-18T06:14:47.678Z,27.50
2023-07-18T06:17:15.211Z,27.20
2023-07-18T06:19:42.479Z,27.73
2023-07-18T06:22:10.815Z,26.91
2023-07-18T06:24:37.779Z,27.06
2023-07-18T06:27:05.121Z,27.49
2023-07-18T06:29:35.844Z,27.17
2023-07-18T06:32:05.936Z,27.45
2023-07-18T06:34:34.377Z,27.86
2023-07-18T06:37:03.526Z,27.59
2023-07-18T06:39:30.917Z,27.68
2023-07-18T06:41:58.700Z,27.65
2023-07-18T06:44:25.924Z,27.13
2023-07-18T06:46:53.739Z,27.42
2023-07-18T06:49:21.864Z,27.33
2023-07-18T06:51:50.770Z,27.05
2023-07-18T06:54:18.415Z,26.88
2023-07-18T06:56:46.210Z,26.75
2023-07-18T06:59:15.226Z,27.10
2023-07-18T07:01:43.704Z,27.03
2023-07-18T07:04:11.896Z,26.77
2023-07-18T07:06:43.453Z,26.79
2023-07-18T07:09:15.019Z,27.12
2023-07-18T07:11:43.325Z,27.72
2023-07-18T07:14:10.493Z,27.38
2023-07-18T07:16:37.546Z,26.94
2023-07-18T07:19:06.643Z,27.30
2023-07-18T07:21:33.973Z,27.04
2023-07-18T07:24:01.862Z,27.53
2023-07-18T07:26:29.338Z,27.29
2023-07-18T07:28:56.756Z,26.80
2023-07-18T07:31:24.388Z,27.01
2023-07-18T07:33:52.189Z,27.48
2023-07-18T07:36:20.650Z,27.88
2023-07-18T07:38:47.697Z,27.30
2023-07-18T07:41:14.829Z,27.27
2023-07-18T07:43:41.897Z,27.88
2023-07-18T07:46:09.117Z,27.34
2023-07-18T07:48:36.326Z,27.41
2023-07-18T07:51:04.955Z,27.76
2023-07-18T07:53:32.594Z,27.47
2023-07-18T07:56:00.129Z,27.62
2023-07-18T07:58:27.098Z,27.40
2023-07-18T08:00:57.142Z,27.20
2023-07-18T08:03:24.117Z,27.31
2023-07-18T08:05:51.133Z,27.68
2023-07-18T08:08:19.357Z,27.60
2023-07-18T08:10:46.454Z,27.51
2023-07-18T08:13:15.582Z,27.16
2023-07-18T08:15:42.865Z,27.38
2023-07-18T08:18:09.951Z,28.12
2023-07-18T08:20:38.020Z,28.52
2023-07-18T08:23:05.290Z,28.36
2023-07-18T08:25:32.797Z,28.62
2023-07-18T08:27:59.905Z,27.73
2023-07-18T08:30:26.903Z,28.35
2023-07-18T08:32:53.932Z,28.56
2023-07-18T08:35:21.025Z,28.35
2023-07-18T08:37:48.727Z,28.53
2023-07-18T08:40:15.911Z,28.65
2023-07-18T08:42:44.172Z,28.32
2023-07-18T08:45:14.902Z,28.66
2023-07-18T08:47:43.859Z,28.61
2023-07-18T08:50:14.084Z,29.37
2023-07-18T08:52:41.479Z,28.84
2023-07-18T08:55:09.559Z,29.08
2023-07-18T08:57:36.957Z,29.06
2023-07-18T09:00:05.874Z,29.11
2023-07-18T09:02:33.070Z,28.92
2023-07-18T09:05:00.160Z,28.91
2023-07-18T09:07:28.790Z,28.48
2023-07-18T09:09:59.190Z,29.41
2023-07-18T09:12:28.981Z,28.99
2023-07-18T09:14:59.293Z,28.86
2023-07-18T09:17:26.492Z,29.09
2023-07-18T09:19:53.816Z,29.07
2023-07-18T09:22:20.952Z,29.56
2023-07-18T09:24:49.306Z,29.79
2023-07-18T09:27:20.681Z,30.22
2023-07-18T09:29:49.837Z,30.24
2023-07-18T09:32:18.731Z,29.84
2023-07-18T09:34:57.227Z,30.64
2023-07-18T09:37:24.860Z,30.16
2023-07-18T09:39:52.432Z,30.59
2023-07-18T09:42:21.140Z,30.32
2023-07-18T09:44:53.383Z,31.42
2023-07-18T09:47:21.817Z,30.07
2023-07-18T09:49:49.471Z,30.38
2023-07-18T09:52:20.083Z,30.88
2023-07-18T09:54:49.870Z,30.98
2023-07-18T09:57:18.402Z,30.93
2023-07-18T09:59:47.276Z,30.51
2023-07-18T10:02:15.163Z,31.16
2023-07-18T10:04:43.300Z,30.52
2023-07-18T10:07:10.643Z,30.77
2023-07-18T10:09:38.620Z,31.53
2023-07-18T10:12:09.444Z,31.16
2023-07-18T10:15:11.993Z,31.01
2023-07-18T10:17:42.157Z,31.34
2023-07-18T10:20:18.763Z,31.50
2023-07-18T10:22:54.540Z,31.34
2023-07-18T10:25:22.093Z,31.58
2023-07-18T10:27:50.258Z,31.94
2023-07-18T10:30:21.569Z,31.26
2023-07-18T10:32:57.592Z,32.01
2023-07-18T10:35:27.657Z,31.89
2023-07-18T10:37:57.889Z,32.05
2023-07-18T10:40:40.777Z,31.90
2023-07-18T10:43:12.521Z,31.91
2023-07-18T10:45:41.181Z,31.97
2023-07-18T10:48:17.081Z,32.53
2023-07-18T10:50:48.850Z,31.27
2023-07-18T10:53:20.947Z,30.36
2023-07-18T10:55:49.431Z,30.12
2023-07-18T10:58:20.422Z,30.26
2023-07-18T11:00:49.649Z,31.06
2023-07-18T11:03:28.897Z,32.09
2023-07-18T11:05:56.170Z,31.58
2023-07-18T11:08:32.506Z,31.42
2023-07-18T11:11:04.451Z,32.02
2023-07-18T11:13:34.075Z,32.35
2023-07-18T11:16:09.119Z,31.52
2023-07-18T11:18:38.379Z,32.34
2023-07-18T11:21:07.521Z,31.56
2023-07-18T11:23:36.817Z,31.26
2023-07-18T11:26:13.768Z,31.31
2023-07-18T11:28:43.120Z,31.00
2023-07-18T11:31:41.864Z,30.97
2023-07-18T11:34:10.378Z,30.65
2023-07-18T11:36:40.719Z,30.72
2023-07-18T11:39:24.133Z,31.53
2023-07-18T11:41:53.322Z,30.48
2023-07-18T11:44:27.789Z,31.12
2023-07-18T11:46:56.175Z,31.37
2023-07-18T11:49:37.208Z,31.69
2023-07-18T11:52:06.993Z,30.55
2023-07-18T11:54:37.665Z,31.12
2023-07-18T11:57:06.462Z,31.25
2023-07-18T11:59:34.032Z,31.27
2023-07-18T12:02:02.307Z,30.84
2023-07-18T12:04:29.644Z,31.43
2023-07-18T12:06:56.835Z,31.61
2023-07-18T12:09:23.867Z,31.73
2023-07-18T12:11:50.958Z,31.63
2023-07-18T12:14:17.926Z,32.32
2023-07-18T12:16:44.975Z,32.46
2023-07-18T12:19:13.643Z,32.37
2023-07-18T12:21:40.620Z,32.52
2023-07-18T12:24:08.114Z,32.01
2023-07-18T12:26:35.248Z,32.23
2023-07-18T12:29:04.760Z,32.60
2023-07-18T12:31:35.200Z,32.57
2023-07-18T12:34:02.543Z,32.60
2023-07-18T12:36:29.724Z,32.11
2023-07-18T12:38:56.833Z,32.82
2023-07-18T12:41:24.026Z,33.08
2023-07-18T12:43:51.754Z,32.90
2023-07-18T12:46:19.317Z,33.18
2023-07-18T12:48:50.741Z,32.88
2023-07-18T12:51:17.909Z,33.13
2023-07-18T12:53:45.076Z,33.33
2023-07-18T12:56:12.081Z,33.72
2023-07-18T12:58:39.215Z,33.16
2023-07-18T13:01:06.439Z,34.22
2023-07-18T13:03:34.294Z,35.04
2023-07-18T13:06:01.791Z,35.52
2023-07-18T13:08:29.997Z,34.98
2023-07-18T13:10:57.129Z,33.06
2023-07-18T13:13:24.430Z,33.10
2023-07-18T13:15:53.979Z,33.28
2023-07-18T13:18:21.280Z,32.83
2023-07-18T13:20:50.604Z,32.12
2023-07-18T13:23:17.960Z,32.34
2023-07-18T13:25:45.063Z,32.15
2023-07-18T13:28:12.252Z,32.65
2023-07-18T13:30:40.512Z,32.51
2023-07-18T13:33:09.912Z,31.97
2023-07-18T13:35:37.533Z,32.48
2023-07-18T13:38:04.767Z,32.39
2023-07-18T13:40:31.737Z,34.25
2023-07-18T13:42:59.397Z,34.54
2023-07-18T13:45:26.542Z,34.64
2023-07-18T13:47:53.921Z,34.79
2023-07-18T13:50:31.351Z,35.94
2023-07-18T13:52:58.971Z,35.18
2023-07-18T13:55:26.016Z,35.93
2023-07-18T13:57:53.150Z,35.52
2023-07-18T14:00:21.055Z,35.73
2023-07-18T14:02:50.984Z,34.64
2023-07-18T14:05:18.097Z,34.99
2023-07-18T14:07:45.202Z,34.06
2023-07-18T14:10:12.506Z,33.73
2023-07-18T14:12:39.732Z,33.19
2023-07-18T14:15:07.292Z,33.44
2023-07-18T14:17:34.512Z,33.88
2023-07-18T14:20:01.570Z,33.09
2023-07-18T14:22:28.614Z,33.00
2023-07-18T14:24:55.743Z,33.85
2023-07-18T14:27:22.811Z,34.47
2023-07-18T14:29:49.964Z,33.46
2023-07-18T14:32:16.957Z,34.23
2023-07-18T14:34:44.108Z,33.58
2023-07-18T14:37:11.249Z,33.43
2023-07-18T14:39:40.220Z,34.05
2023-07-18T14:42:08.445Z,34.03
2023-07-18T14:44:38.612Z,34.59
2023-07-18T14:47:05.968Z,34.13
2023-07-18T14:49:32.981Z,33.71
2023-07-18T14:52:00.619Z,33.85
2023-07-18T14:54:27.612Z,33.63
2023-07-18T14:56:54.624Z,33.74
2023-07-18T14:59:21.566Z,33.24
2023-07-18T15:01:49.097Z,34.25
2023-07-18T15:04:16.577Z,34.26
2023-07-18T15:06:43.558Z,34.89
2023-07-18T15:09:10.688Z,34.57
2023-07-18T15:11:37.901Z,33.93
2023-07-18T15:14:05.168Z,33.22
2023-07-18T15:16:32.254Z,33.56
2023-07-18T15:18:59.423Z,33.82
2023-07-18T15:21:29.276Z,33.82
2023-07-18T15:23:56.282Z,33.64
2023-07-18T15:26:23.773Z,34.47
2023-07-18T15:28:50.925Z,34.67
2023-07-18T15:31:18.836Z,34.39
2023-07-18T15:33:45.926Z,34.63
2023-07-18T15:36:12.939Z,34.52
2023-07-18T15:38:40.179Z,34.53
2023-07-18T15:41:07.261Z,34.21
2023-07-18T15:43:35.103Z,33.95
2023-07-18T15:46:04.685Z,34.48
2023-07-18T15:48:31.896Z,34.52
2023-07-18T15:50:58.898Z,34.24
2023-07-18T15:53:25.911Z,34.01
2023-07-18T15:55:53.385Z,33.43
2023-07-18T15:58:20.369Z,34.91
2023-07-18T16:00:47.379Z,34.42
2023-07-18T16:03:14.563Z,35.52
2023-07-18T16:05:41.736Z,34.46
2023-07-18T16:08:08.740Z,34.96
2023-07-18T16:10:35.720Z,35.00
2023-07-18T16:13:02.977Z,33.76
2023-07-18T16:15:30.246Z,33.83
2023-07-18T16:17:57.559Z,34.23
2023-07-18T16:20:24.630Z,34.25
2023-07-18T16:22:54.965Z,34.30
2023-07-18T16:25:22.063Z,33.98
2023-07-18T16:27:50.307Z,34.07
2023-07-18T16:30:19.691Z,34.30
2023-07-18T16:32:46.803Z,34.45
2023-07-18T16:35:14.086Z,34.15
2023-07-18T16:37:43.436Z,34.93
2023-07-18T16:40:11.760Z,33.49
2023-07-18T16:42:38.882Z,33.81
2023-07-18T16:45:06.774Z,34.09
2023-07-18T16:47:33.885Z,34.52
2023-07-18T16:50:00.964Z,33.74
2023-07-18T16:52:28.073Z,33.35
2023-07-18T16:54:55.054Z,33.15
2023-07-18T16:57:22.102Z,33.78
2023-07-18T16:59:49.202Z,33.61
2023-07-18T17:02:16.267Z,33.83
2023-07-18T17:04:43.584Z,34.41
2023-07-18T17:07:11.054Z,33.30
2023-07-18T17:09:38.154Z,33.34
2023-07-18T17:12:06.584Z,33.36
2023-07-18T17:14:33.590Z,33.09
2023-07-18T17:17:01.056Z,33.30
2023-07-18T17:19:28.451Z,33.05
2023-07-18T17:21:55.568Z,33.24
2023-07-18T17:24:22.553Z,33.41
2023-07-18T17:26:49.948Z,33.38
2023-07-18T17:29:20.662Z,33.14
2023-07-18T17:31:49.706Z,33.28
2023-07-18T17:34:22.728Z,33.60
2023-07-18T17:37:00.041Z,33.37
2023-07-18T17:39:29.754Z,33.99
2023-07-18T17:41:57.177Z,34.21
2023-07-18T17:44:24.681Z,32.74
2023-07-18T17:46:54.778Z,32.02
2023-07-18T17:49:26.104Z,31.71
2023-07-18T17:51:58.760Z,31.51
2023-07-18T17:54:26.279Z,32.30
2023-07-18T17:56:56.355Z,32.31
2023-07-18T17:59:33.031Z,33.38
2023-07-18T18:02:03.000Z,33.15
2023-07-18T18:04:34.554Z,33.24
2023-07-18T18:07:02.038Z,32.94
2023-07-18T18:09:32.146Z,33.13
2023-07-18T18:11:59.439Z,32.17
2023-07-18T18:14:32.282Z,32.25
2023-07-18T18:17:06.094Z,32.55
2023-07-18T18:19:47.595Z,31.61
2023-07-18T18:22:22.536Z,31.68
2023-07-18T18:24:49.965Z,32.82
2023-07-18T18:27:17.076Z,33.06
2023-07-18T18:29:44.338Z,33.34
2023-07-18T18:32:17.598Z,31.05
2023-07-18T18:35:00.620Z,30.14
2023-07-18T18:37:31.976Z,31.34
2023-07-18T18:40:01.810Z,31.48
2023-07-18T18:42:33.683Z,31.10
2023-07-18T18:45:01.172Z,31.56
2023-07-18T18:47:40.586Z,32.17
2023-07-18T18:50:12.181Z,31.87
2023-07-18T18:52:42.175Z,32.42
2023-07-18T18:55:19.223Z,31.76
2023-07-18T18:57:50.110Z,32.29
2023-07-18T19:00:21.427Z,31.29
2023-07-18T19:02:48.670Z,30.22
2023-07-18T19:05:16.254Z,31.47
2023-07-18T19:07:53.612Z,32.48
2023-07-18T19:10:22.200Z,46.35
2023-07-18T19:12:49.408Z,43.35
2023-07-18T19:15:17.091Z,40.29
2023-07-18T19:17:44.551Z,37.49
2023-07-18T19:20:12.632Z,37.94
2023-07-18T19:22:40.845Z,38.01
2023-07-18T19:25:09.776Z,39.14
2023-07-18T19:27:37.536Z,38.25
2023-07-18T19:30:06.402Z,38.10
2023-07-18T19:32:36.938Z,39.00
2023-07-18T19:35:04.545Z,41.61
2023-07-18T19:37:40.529Z,43.45
2023-07-18T19:40:11.522Z,42.17
2023-07-18T19:42:38.624Z,41.72
2023-07-18T19:45:06.387Z,41.96
2023-07-18T19:47:33.502Z,40.20
2023-07-18T19:50:00.919Z,39.72
2023-07-18T19:52:27.981Z,37.90
2023-07-18T19:54:55.407Z,38.72
2023-07-18T19:57:23.270Z,39.23
2023-07-18T19:59:50.494Z,36.06
2023-07-18T20:02:17.655Z,35.31
2023-07-18T20:04:44.803Z,38.71
2023-07-18T20:07:12.069Z,37.97
2023-07-18T20:09:39.258Z,40.65
2023-07-18T20:12:07.027Z,38.77
2023-07-18T20:14:38.696Z,40.86
2023-07-18T20:17:06.006Z,40.81
2023-07-18T20:19:33.271Z,41.05
2023-07-18T20:22:00.347Z,40.84
2023-07-18T20:24:27.507Z,39.97
2023-07-18T20:26:54.568Z,40.58
2023-07-18T20:29:21.986Z,38.40
2023-07-18T20:31:52.332Z,40.50
2023-07-18T20:34:20.178Z,38.57
2023-07-18T20:36:49.293Z,40.04
2023-07-18T20:39:16.468Z,40.61
2023-07-18T20:41:43.550Z,39.92
2023-07-18T20:44:15.604Z,40.17
2023-07-18T20:46:44.885Z,40.49
2023-07-18T20:49:12.183Z,38.02
2023-07-18T20:51:41.233Z,39.27
2023-07-18T20:54:08.947Z,39.49
2023-07-18T20:56:36.154Z,38.82
2023-07-18T20:59:06.426Z,36.47
2023-07-18T21:01:33.738Z,38.80
2023-07-18T21:04:01.653Z,38.33
2023-07-18T21:06:29.418Z,39.28
2023-07-18T21:08:59.365Z,39.82
2023-07-18T21:11:26.470Z,37.16
2023-07-18T21:13:53.624Z,37.17
2023-07-18T21:16:21.376Z,37.89
2023-07-18T21:18:48.383Z,39.37
2023-07-18T21:21:15.676Z,39.55
2023-07-18T21:23:43.374Z,39.56
2023-07-18T21:26:10.327Z,39.49
2023-07-18T21:28:46.664Z,39.38
2023-07-18T21:31:21.211Z,38.74
2023-07-18T21:33:49.623Z,39.24
2023-07-18T21:36:16.662Z,39.39
2023-07-18T21:38:43.793Z,39.29
2023-07-18T21:41:10.950Z,38.02
2023-07-18T21:43:38.040Z,37.74
2023-07-18T21:46:05.171Z,38.19
2023-07-18T21:48:32.621Z,38.50
2023-07-18T21:50:59.605Z,38.41
2023-07-18T21:53:27.427Z,38.54
2023-07-18T21:55:54.413Z,38.56
2023-07-18T21:58:22.258Z,38.35
2023-07-18T22:00:49.393Z,38.52
2023-07-18T22:03:16.808Z,38.87
2023-07-18T22:05:44.050Z,37.92
2023-07-18T22:08:11.226Z,36.78
2023-07-18T22:10:38.377Z,38.41
2023-07-18T22:13:05.379Z,38.76
2023-07-18T22:15:32.558Z,37.92
2023-07-18T22:18:08.980Z,37.68
2023-07-18T22:20:39.373Z,39.26
2023-07-18T22:23:06.979Z,39.06
2023-07-18T22:25:34.122Z,38.46
2023-07-18T22:28:02.374Z,38.55
2023-07-18T22:30:29.517Z,38.71
2023-07-18T22:32:56.568Z,38.49
2023-07-18T22:35:24.206Z,38.34
2023-07-18T22:37:51.310Z,37.92
2023-07-18T22:40:19.042Z,38.12
2023-07-18T22:42:46.829Z,36.94
2023-07-18T22:45:13.910Z,36.99
2023-07-18T22:47:41.027Z,37.25
2023-07-18T22:50:09.120Z,37.19
2023-07-18T22:52:37.339Z,37.21
2023-07-18T22:55:04.980Z,37.35
2023-07-18T22:57:32.451Z,37.05
2023-07-18T23:00:00.074Z,36.83
2023-07-18T23:02:27.091Z,36.67
2023-07-18T23:04:54.258Z,35.22
2023-07-18T23:07:22.481Z,36.05
2023-07-18T23:09:49.470Z,35.61
2023-07-18T23:12:16.493Z,34.86
2023-07-18T23:14:43.471Z,34.99
2023-07-18T23:17:10.491Z,35.52
2023-07-18T23:19:37.493Z,35.50
2023-07-18T23:22:04.819Z,34.64
2023-07-18T23:24:31.807Z,35.38
2023-07-18T23:26:59.131Z,36.36
2023-07-18T23:29:26.181Z,36.51
2023-07-18T23:31:53.190Z,36.56
2023-07-18T23:34:20.367Z,35.79
2023-07-18T23:36:47.471Z,36.26
2023-07-18T23:39:14.464Z,35.82
2023-07-18T23:41:42.487Z,35.25
2023-07-18T23:44:09.624Z,35.91
2023-07-18T23:46:36.670Z,36.01
2023-07-18T23:49:03.983Z,35.83
2023-07-18T23:51:31.216Z,36.29
2023-07-18T23:53:58.801Z,36.21
2023-07-18T23:56:25.785Z,36.23
2023-07-18T23:58:52.890Z,36.19
